sensor_id;sensor_type;location;lat;lon;timestamp;pressure;altitude;pressure_sealevel;temperature;humidity
72124;BME280;63818;37.134;-8.548;2023-04-29T00:02:08;101324.6;;;23.0;45.6
72124;BME280;63818;37.134;-8.548;2023-04-29T00:06:54;101329.3;;;23.0;46.2
72124;BME280;63818;37.134;-8.548;2023-04-29T00:11:40;101333.2;;;23.0;46.7
72124;BME280;63818;37.134;-8.548;2023-04-29T00:16:26;101344.1;;;23.0;47.3
72124;BME280;63818;37.134;-8.548;2023-04-29T00:21:12;101348.7;;;23.0;47.9
72124;BME280;63818;37.134;-8.548;2023-04-29T00:25:59;101348.7;;;22.9;49.0
72124;BME280;63818;37.134;-8.548;2023-04-29T00:30:45;101337.2;;;22.8;49.7
72124;BME280;63818;37.134;-8.548;2023-04-29T00:35:31;101343.5;;;22.8;50.0
72124;BME280;63818;37.134;-8.548;2023-04-29T00:40:17;101338.8;;;22.8;50.7
72124;BME280;63818;37.134;-8.548;2023-04-29T00:45:03;101341.1;;;22.8;51.1
72124;BME280;63818;37.134;-8.548;2023-04-29T00:49:49;101334.5;;;22.8;51.0
72124;BME280;63818;37.134;-8.548;2023-04-29T00:54:36;101336.5;;;22.8;51.0
72124;BME280;63818;37.134;-8.548;2023-04-29T00:59:22;101332.9;;;22.8;51.8
72124;BME280;63818;37.134;-8.548;2023-04-29T01:04:08;101337.2;;;22.8;52.1
72124;BME280;63818;37.134;-8.548;2023-04-29T01:09:08;101343.1;;;22.8;52.5
72124;BME280;63818;37.134;-8.548;2023-04-29T01:13:59;101339.1;;;22.7;53.4
72124;BME280;63818;37.134;-8.548;2023-04-29T01:18:51;101334.8;;;22.7;54.0
72124;BME280;63818;37.134;-8.548;2023-04-29T01:23:39;101356.7;;;22.7;54.6
72124;BME280;63818;37.134;-8.548;2023-04-29T01:28:33;101371.9;;;22.6;55.4
72124;BME280;63818;37.134;-8.548;2023-04-29T01:33:31;101376.5;;;22.6;56.2
72124;BME280;63818;37.134;-8.548;2023-04-29T01:38:33;101374.1;;;22.5;56.6
72124;BME280;63818;37.134;-8.548;2023-04-29T01:43:22;101371.7;;;22.5;57.3
72124;BME280;63818;37.134;-8.548;2023-04-29T01:48:09;101375.2;;;22.5;57.6
72124;BME280;63818;37.134;-8.548;2023-04-29T01:52:55;101363.8;;;22.5;58.2
72124;BME280;63818;37.134;-8.548;2023-04-29T01:57:41;101385.4;;;22.5;58.0
72124;BME280;63818;37.134;-8.548;2023-04-29T02:02:27;101390.1;;;22.5;57.9
72124;BME280;63818;37.134;-8.548;2023-04-29T02:07:12;101398.3;;;22.5;58.1
72124;BME280;63818;37.134;-8.548;2023-04-29T02:11:59;101408.8;;;22.5;58.3
72124;BME280;63818;37.134;-8.548;2023-04-29T02:16:45;101421.8;;;22.5;58.3
72124;BME280;63818;37.134;-8.548;2023-04-29T02:21:31;101441.3;;;22.5;58.2
72124;BME280;63818;37.134;-8.548;2023-04-29T02:26:17;101439.7;;;22.5;58.5
72124;BME280;63818;37.134;-8.548;2023-04-29T02:31:03;101450.3;;;22.5;58.2
72124;BME280;63818;37.134;-8.548;2023-04-29T02:35:49;101446.0;;;22.5;58.4
72124;BME280;63818;37.134;-8.548;2023-04-29T02:40:39;101462.1;;;22.5;58.3
72124;BME280;63818;37.134;-8.548;2023-04-29T02:45:26;101468.0;;;22.5;58.5
72124;BME280;63818;37.134;-8.548;2023-04-29T02:50:12;101451.1;;;22.5;58.7
72124;BME280;63818;37.134;-8.548;2023-04-29T02:54:58;101457.4;;;22.5;58.9
72124;BME280;63818;37.134;-8.548;2023-04-29T02:59:44;101458.2;;;22.5;58.9
72124;BME280;63818;37.134;-8.548;2023-04-29T03:04:30;101485.9;;;22.5;59.3
72124;BME280;63818;37.134;-8.548;2023-04-29T03:09:16;101490.6;;;22.5;59.8
72124;BME280;63818;37.134;-8.548;2023-04-29T03:14:02;101480.8;;;22.4;60.3
72124;BME280;63818;37.134;-8.548;2023-04-29T03:18:48;101456.1;;;22.4;60.9
72124;BME280;63818;37.134;-8.548;2023-04-29T03:23:35;101456.1;;;22.4;60.9
72124;BME280;63818;37.134;-8.548;2023-04-29T03:28:21;101466.2;;;22.4;61.5
72124;BME280;63818;37.134;-8.548;2023-04-29T03:33:07;101450.5;;;22.4;61.5
72124;BME280;63818;37.134;-8.548;2023-04-29T03:37:53;101442.3;;;22.4;61.9
72124;BME280;63818;37.134;-8.548;2023-04-29T03:42:41;101442.8;;;22.4;62.0
72124;BME280;63818;37.134;-8.548;2023-04-29T03:47:28;101403.3;;;22.4;62.2
72124;BME280;63818;37.134;-8.548;2023-04-29T03:52:14;101403.7;;;22.4;62.7
72124;BME280;63818;37.134;-8.548;2023-04-29T03:57:00;101390.4;;;22.4;62.2
72124;BME280;63818;37.134;-8.548;2023-04-29T04:01:47;101387.7;;;22.4;61.8
72124;BME280;63818;37.134;-8.548;2023-04-29T04:06:33;101367.7;;;22.4;61.6
72124;BME280;63818;37.134;-8.548;2023-04-29T04:11:19;101375.9;;;22.4;61.0
72124;BME280;63818;37.134;-8.548;2023-04-29T04:16:06;101381.3;;;22.4;61.5
72124;BME280;63818;37.134;-8.548;2023-04-29T04:20:52;101391.1;;;22.3;61.5
72124;BME280;63818;37.134;-8.548;2023-04-29T04:25:46;101396.1;;;22.4;60.5
72124;BME280;63818;37.134;-8.548;2023-04-29T04:30:36;101409.8;;;22.3;59.8
72124;BME280;63818;37.134;-8.548;2023-04-29T04:35:22;101390.1;;;22.2;58.7
72124;BME280;63818;37.134;-8.548;2023-04-29T04:40:10;101390.8;;;22.2;58.1
72124;BME280;63818;37.134;-8.548;2023-04-29T04:44:57;101400.3;;;22.2;57.9
72124;BME280;63818;37.134;-8.548;2023-04-29T04:49:43;101451.0;;;22.2;58.1
72124;BME280;63818;37.134;-8.548;2023-04-29T04:54:29;101457.9;;;22.1;58.3
72124;BME280;63818;37.134;-8.548;2023-04-29T04:59:15;101473.1;;;21.8;60.2
72124;BME280;63818;37.134;-8.548;2023-04-29T05:04:01;101463.7;;;21.8;61.1
72124;BME280;63818;37.134;-8.548;2023-04-29T05:08:47;101461.3;;;21.8;61.3
72124;BME280;63818;37.134;-8.548;2023-04-29T05:13:36;101472.7;;;21.8;61.4
72124;BME280;63818;37.134;-8.548;2023-04-29T05:18:22;101477.9;;;21.9;61.4
72124;BME280;63818;37.134;-8.548;2023-04-29T05:23:08;101490.1;;;21.9;61.6
72124;BME280;63818;37.134;-8.548;2023-04-29T05:27:54;101481.0;;;21.9;61.9
72124;BME280;63818;37.134;-8.548;2023-04-29T05:32:40;101496.9;;;21.8;62.0
72124;BME280;63818;37.134;-8.548;2023-04-29T05:37:27;101499.1;;;21.7;62.6
72124;BME280;63818;37.134;-8.548;2023-04-29T05:42:12;101516.1;;;21.8;62.4
72124;BME280;63818;37.134;-8.548;2023-04-29T05:46:59;101540.8;;;21.8;62.3
72124;BME280;63818;37.134;-8.548;2023-04-29T05:51:45;101544.3;;;21.9;62.2
72124;BME280;63818;37.134;-8.548;2023-04-29T05:56:34;101569.0;;;21.9;62.4
72124;BME280;63818;37.134;-8.548;2023-04-29T06:01:20;101585.8;;;21.9;62.5
72124;BME280;63818;37.134;-8.548;2023-04-29T06:06:08;101588.7;;;21.8;63.7
72124;BME280;63818;37.134;-8.548;2023-04-29T06:10:54;101597.6;;;21.7;64.5
72124;BME280;63818;37.134;-8.548;2023-04-29T06:15:40;101586.7;;;21.8;65.0
72124;BME280;63818;37.134;-8.548;2023-04-29T06:20:26;101600.3;;;21.7;64.8
72124;BME280;63818;37.134;-8.548;2023-04-29T06:25:12;101605.8;;;21.7;65.0
72124;BME280;63818;37.134;-8.548;2023-04-29T06:29:58;101598.0;;;21.7;64.5
72124;BME280;63818;37.134;-8.548;2023-04-29T06:34:44;101593.0;;;21.8;64.5
72124;BME280;63818;37.134;-8.548;2023-04-29T06:39:30;101579.2;;;21.7;64.3
72124;BME280;63818;37.134;-8.548;2023-04-29T06:44:19;101572.3;;;21.8;63.8
72124;BME280;63818;37.134;-8.548;2023-04-29T06:49:05;101569.9;;;21.7;64.0
72124;BME280;63818;37.134;-8.548;2023-04-29T06:53:51;101562.5;;;21.8;64.5
72124;BME280;63818;37.134;-8.548;2023-04-29T06:58:39;101581.7;;;21.8;64.0
72124;BME280;63818;37.134;-8.548;2023-04-29T07:03:27;101582.2;;;21.8;64.1
72124;BME280;63818;37.134;-8.548;2023-04-29T07:08:13;101591.2;;;21.8;63.9
72124;BME280;63818;37.134;-8.548;2023-04-29T07:13:00;101595.9;;;21.9;64.0
72124;BME280;63818;37.134;-8.548;2023-04-29T07:17:46;101625.6;;;21.9;64.0
72124;BME280;63818;37.134;-8.548;2023-04-29T07:22:32;101609.3;;;21.9;64.1
72124;BME280;63818;37.134;-8.548;2023-04-29T07:27:19;101593.0;;;22.0;64.1
72124;BME280;63818;37.134;-8.548;2023-04-29T07:32:05;101587.6;;;22.0;64.1
72124;BME280;63818;37.134;-8.548;2023-04-29T07:36:51;101597.4;;;22.0;64.1
72124;BME280;63818;37.134;-8.548;2023-04-29T07:41:37;101599.8;;;22.0;64.0
72124;BME280;63818;37.134;-8.548;2023-04-29T07:46:26;101605.0;;;22.1;63.8
72124;BME280;63818;37.134;-8.548;2023-04-29T07:51:13;101602.3;;;22.1;64.0
72124;BME280;63818;37.134;-8.548;2023-04-29T07:56:03;101603.3;;;22.2;64.2
72124;BME280;63818;37.134;-8.548;2023-04-29T08:00:50;101589.2;;;22.2;63.6
72124;BME280;63818;37.134;-8.548;2023-04-29T08:05:38;101588.5;;;22.3;64.0
72124;BME280;63818;37.134;-8.548;2023-04-29T08:10:24;101579.2;;;22.3;63.7
72124;BME280;63818;37.134;-8.548;2023-04-29T08:15:13;101593.2;;;22.3;62.8
72124;BME280;63818;37.134;-8.548;2023-04-29T08:19:59;101579.2;;;22.4;62.9
72124;BME280;63818;37.134;-8.548;2023-04-29T08:24:45;101585.9;;;22.4;62.7
72124;BME280;63818;37.134;-8.548;2023-04-29T08:29:31;101574.9;;;22.4;61.8
72124;BME280;63818;37.134;-8.548;2023-04-29T08:34:17;101582.0;;;22.4;60.9
72124;BME280;63818;37.134;-8.548;2023-04-29T08:39:03;101590.2;;;22.4;60.4
72124;BME280;63818;37.134;-8.548;2023-04-29T08:43:49;101588.0;;;22.5;60.5
72124;BME280;63818;37.134;-8.548;2023-04-29T08:48:36;101589.6;;;22.5;60.2
72124;BME280;63818;37.134;-8.548;2023-04-29T08:53:22;101591.2;;;22.5;59.5
72124;BME280;63818;37.134;-8.548;2023-04-29T08:58:09;101627.2;;;22.5;59.6
72124;BME280;63818;37.134;-8.548;2023-04-29T09:02:56;101626.4;;;22.5;59.1
72124;BME280;63818;37.134;-8.548;2023-04-29T09:07:43;101619.0;;;22.5;57.9
72124;BME280;63818;37.134;-8.548;2023-04-29T09:12:29;101622.6;;;22.5;57.8
72124;BME280;63818;37.134;-8.548;2023-04-29T09:17:15;101619.5;;;22.6;57.5
72124;BME280;63818;37.134;-8.548;2023-04-29T09:22:03;101625.4;;;22.6;57.4
72124;BME280;63818;37.134;-8.548;2023-04-29T09:26:49;101644.6;;;22.6;57.1
72124;BME280;63818;37.134;-8.548;2023-04-29T09:31:36;101649.7;;;22.6;57.1
72124;BME280;63818;37.134;-8.548;2023-04-29T09:36:44;101661.9;;;22.6;56.9
72124;BME280;63818;37.134;-8.548;2023-04-29T09:41:31;101647.8;;;22.7;56.2
72124;BME280;63818;37.134;-8.548;2023-04-29T09:46:17;101645.1;;;22.7;56.3
72124;BME280;63818;37.134;-8.548;2023-04-29T09:51:03;101657.6;;;22.7;56.1
72124;BME280;63818;37.134;-8.548;2023-04-29T09:56:00;101669.0;;;22.7;56.0
72124;BME280;63818;37.134;-8.548;2023-04-29T10:00:46;101654.7;;;22.8;57.8
72124;BME280;63818;37.134;-8.548;2023-04-29T10:05:32;101679.0;;;22.8;55.8
72124;BME280;63818;37.134;-8.548;2023-04-29T10:10:20;101659.8;;;22.8;55.7
72124;BME280;63818;37.134;-8.548;2023-04-29T10:15:21;101650.0;;;22.8;54.9
72124;BME280;63818;37.134;-8.548;2023-04-29T10:20:03;101645.4;;;22.9;54.3
72124;BME280;63818;37.134;-8.548;2023-04-29T10:24:52;101648.7;;;22.9;54.0
72124;BME280;63818;37.134;-8.548;2023-04-29T10:29:41;101661.6;;;22.9;53.9
72124;BME280;63818;37.134;-8.548;2023-04-29T10:34:28;101646.7;;;22.9;54.0
72124;BME280;63818;37.134;-8.548;2023-04-29T10:39:22;101664.3;;;22.9;54.1
72124;BME280;63818;37.134;-8.548;2023-04-29T10:44:11;101667.6;;;23.0;54.2
72124;BME280;63818;37.134;-8.548;2023-04-29T10:49:00;101661.6;;;23.0;54.5
72124;BME280;63818;37.134;-8.548;2023-04-29T10:54:06;101664.0;;;23.0;54.8
72124;BME280;63818;37.134;-8.548;2023-04-29T10:58:52;101687.6;;;23.0;54.1
72124;BME280;63818;37.134;-8.548;2023-04-29T11:03:49;101671.6;;;23.1;54.6
72124;BME280;63818;37.134;-8.548;2023-04-29T11:08:37;101676.2;;;23.0;54.5
72124;BME280;63818;37.134;-8.548;2023-04-29T11:13:25;101677.1;;;23.1;55.0
72124;BME280;63818;37.134;-8.548;2023-04-29T11:18:12;101670.1;;;23.1;54.3
72124;BME280;63818;37.134;-8.548;2023-04-29T11:22:58;101689.0;;;23.2;54.3
72124;BME280;63818;37.134;-8.548;2023-04-29T11:27:48;101688.6;;;23.2;54.3
72124;BME280;63818;37.134;-8.548;2023-04-29T11:37:25;101677.2;;;23.2;54.2
72124;BME280;63818;37.134;-8.548;2023-04-29T11:42:11;101692.1;;;23.2;54.5
72124;BME280;63818;37.134;-8.548;2023-04-29T11:47:02;98080.2;;;-1.0;53.8
72124;BME280;63818;37.134;-8.548;2023-04-29T11:51:48;101719.3;;;23.3;54.5
72124;BME280;63818;37.134;-8.548;2023-04-29T11:56:37;101689.5;;;23.3;54.5
72124;BME280;63818;37.134;-8.548;2023-04-29T12:01:24;101694.7;;;23.3;54.5
72124;BME280;63818;37.134;-8.548;2023-04-29T12:06:12;101691.6;;;23.4;54.7
72124;BME280;63818;37.134;-8.548;2023-04-29T12:10:59;101664.9;;;23.3;53.9
72124;BME280;63818;37.134;-8.548;2023-04-29T12:15:47;101669.5;;;23.3;54.2
72124;BME280;63818;37.134;-8.548;2023-04-29T12:20:34;101684.9;;;23.3;54.6
72124;BME280;63818;37.134;-8.548;2023-04-29T12:25:23;101686.9;;;23.4;55.1
72124;BME280;63818;37.134;-8.548;2023-04-29T12:30:10;101701.8;;;23.4;55.4
72124;BME280;63818;37.134;-8.548;2023-04-29T12:34:56;101687.3;;;23.4;55.4
72124;BME280;63818;37.134;-8.548;2023-04-29T12:39:43;101682.7;;;23.4;55.8
72124;BME280;63818;37.134;-8.548;2023-04-29T12:44:35;101689.4;;;23.4;56.5
72124;BME280;63818;37.134;-8.548;2023-04-29T12:49:23;101678.4;;;23.4;56.9
72124;BME280;63818;37.134;-8.548;2023-04-29T12:54:10;101675.3;;;23.5;56.7
72124;BME280;63818;37.134;-8.548;2023-04-29T12:59:02;101692.6;;;23.5;57.9
72124;BME280;63818;37.134;-8.548;2023-04-29T13:03:47;101685.6;;;23.5;58.3
72124;BME280;63818;37.134;-8.548;2023-04-29T13:08:33;101695.8;;;23.5;58.1
72124;BME280;63818;37.134;-8.548;2023-04-29T13:13:20;101649.1;;;23.5;58.3
72124;BME280;63818;37.134;-8.548;2023-04-29T13:18:06;101658.2;;;23.5;58.7
72124;BME280;63818;37.134;-8.548;2023-04-29T13:22:52;101662.1;;;23.5;58.7
72124;BME280;63818;37.134;-8.548;2023-04-29T13:27:38;101700.1;;;23.6;58.8
72124;BME280;63818;37.134;-8.548;2023-04-29T13:32:24;101677.0;;;23.5;57.6
72124;BME280;63818;37.134;-8.548;2023-04-29T13:37:11;101664.5;;;23.6;57.6
72124;BME280;63818;37.134;-8.548;2023-04-29T13:41:56;101682.2;;;23.6;57.9
72124;BME280;63818;37.134;-8.548;2023-04-29T13:46:42;101673.9;;;23.6;58.2
72124;BME280;63818;37.134;-8.548;2023-04-29T13:51:28;101663.4;;;23.6;58.0
72124;BME280;63818;37.134;-8.548;2023-04-29T13:56:14;101686.6;;;23.7;58.6
72124;BME280;63818;37.134;-8.548;2023-04-29T14:01:00;101653.3;;;23.7;57.9
72124;BME280;63818;37.134;-8.548;2023-04-29T14:05:49;101654.8;;;23.7;58.2
72124;BME280;63818;37.134;-8.548;2023-04-29T14:10:35;101643.1;;;23.7;56.7
72124;BME280;63818;37.134;-8.548;2023-04-29T14:15:21;101657.2;;;23.8;56.6
72124;BME280;63818;37.134;-8.548;2023-04-29T14:20:08;101667.9;;;23.8;55.7
72124;BME280;63818;37.134;-8.548;2023-04-29T14:24:54;101678.2;;;23.9;56.2
72124;BME280;63818;37.134;-8.548;2023-04-29T14:29:40;101662.6;;;23.9;56.6
72124;BME280;63818;37.134;-8.548;2023-04-29T14:34:26;101641.4;;;23.9;55.6
72124;BME280;63818;37.134;-8.548;2023-04-29T14:39:12;101632.0;;;23.9;55.2
72124;BME280;63818;37.134;-8.548;2023-04-29T14:43:58;101631.6;;;23.9;54.2
72124;BME280;63818;37.134;-8.548;2023-04-29T14:48:44;101625.7;;;24.0;54.0
72124;BME280;63818;37.134;-8.548;2023-04-29T14:53:30;101603.8;;;24.0;53.4
72124;BME280;63818;37.134;-8.548;2023-04-29T14:58:16;101612.5;;;24.0;51.9
72124;BME280;63818;37.134;-8.548;2023-04-29T15:03:02;101582.7;;;24.1;51.9
72124;BME280;63818;37.134;-8.548;2023-04-29T15:07:48;101591.8;;;24.1;50.1
72124;BME280;63818;37.134;-8.548;2023-04-29T15:12:35;101593.8;;;24.2;50.4
72124;BME280;63818;37.134;-8.548;2023-04-29T15:17:23;101562.5;;;24.2;49.3
72124;BME280;63818;37.134;-8.548;2023-04-29T15:22:09;101562.1;;;24.3;49.2
72124;BME280;63818;37.134;-8.548;2023-04-29T15:26:55;101570.8;;;24.3;48.1
72124;BME280;63818;37.134;-8.548;2023-04-29T15:31:43;101568.1;;;24.4;47.9
72124;BME280;63818;37.134;-8.548;2023-04-29T15:36:30;101565.0;;;24.5;46.9
72124;BME280;63818;37.134;-8.548;2023-04-29T15:41:17;101548.1;;;24.5;47.2
72124;BME280;63818;37.134;-8.548;2023-04-29T15:46:03;101542.3;;;24.6;46.6
72124;BME280;63818;37.134;-8.548;2023-04-29T15:50:51;101552.0;;;24.9;46.0
72124;BME280;63818;37.134;-8.548;2023-04-29T15:55:37;101576.5;;;25.3;45.4
72124;BME280;63818;37.134;-8.548;2023-04-29T16:00:24;101557.4;;;25.5;42.3
72124;BME280;63818;37.134;-8.548;2023-04-29T16:05:10;101533.1;;;25.9;40.8
72124;BME280;63818;37.134;-8.548;2023-04-29T16:09:56;101538.6;;;26.1;41.4
72124;BME280;63818;37.134;-8.548;2023-04-29T16:14:43;101551.2;;;26.2;42.2
72124;BME280;63818;37.134;-8.548;2023-04-29T16:19:29;101565.4;;;26.4;42.4
72124;BME280;63818;37.134;-8.548;2023-04-29T16:24:17;101557.5;;;26.4;43.0
72124;BME280;63818;37.134;-8.548;2023-04-29T16:29:03;101555.1;;;26.3;42.4
72124;BME280;63818;37.134;-8.548;2023-04-29T16:33:49;101580.4;;;26.5;46.8
72124;BME280;63818;37.134;-8.548;2023-04-29T16:38:36;101553.5;;;26.6;45.0
72124;BME280;63818;37.134;-8.548;2023-04-29T16:43:22;101585.5;;;26.5;45.1
72124;BME280;63818;37.134;-8.548;2023-04-29T16:48:08;101572.9;;;26.4;45.8
72124;BME280;63818;37.134;-8.548;2023-04-29T16:52:54;101567.7;;;26.2;46.8
72124;BME280;63818;37.134;-8.548;2023-04-29T16:57:40;101571.6;;;26.2;46.9
72124;BME280;63818;37.134;-8.548;2023-04-29T17:02:28;101578.8;;;26.0;46.9
72124;BME280;63818;37.134;-8.548;2023-04-29T17:07:14;101586.1;;;25.6;48.3
72124;BME280;63818;37.134;-8.548;2023-04-29T17:12:00;101586.0;;;25.4;48.5
72124;BME280;63818;37.134;-8.548;2023-04-29T17:16:46;101587.1;;;25.3;49.1
72124;BME280;63818;37.134;-8.548;2023-04-29T17:21:31;101594.9;;;25.1;50.2
72124;BME280;63818;37.134;-8.548;2023-04-29T17:26:17;101605.9;;;25.0;50.7
72124;BME280;63818;37.134;-8.548;2023-04-29T17:31:03;101592.1;;;24.9;50.8
72124;BME280;63818;37.134;-8.548;2023-04-29T17:35:50;101586.5;;;24.8;51.3
72124;BME280;63818;37.134;-8.548;2023-04-29T17:40:37;101610.4;;;24.7;52.0
72124;BME280;63818;37.134;-8.548;2023-04-29T17:45:23;101608.3;;;24.6;52.7
72124;BME280;63818;37.134;-8.548;2023-04-29T17:50:10;101603.6;;;24.5;52.1
72124;BME280;63818;37.134;-8.548;2023-04-29T17:54:56;101612.1;;;24.4;52.9
72124;BME280;63818;37.134;-8.548;2023-04-29T17:59:42;101616.8;;;24.4;52.4
72124;BME280;63818;37.134;-8.548;2023-04-29T18:04:28;101616.8;;;24.5;52.2
72124;BME280;63818;37.134;-8.548;2023-04-29T18:09:17;101600.7;;;24.4;52.7
72124;BME280;63818;37.134;-8.548;2023-04-29T18:14:04;101612.9;;;24.4;53.1
72124;BME280;63818;37.134;-8.548;2023-04-29T18:18:50;101642.3;;;24.4;53.3
72124;BME280;63818;37.134;-8.548;2023-04-29T18:23:36;101608.1;;;24.3;52.8
72124;BME280;63818;37.134;-8.548;2023-04-29T18:28:22;101624.8;;;24.2;53.1
72124;BME280;63818;37.134;-8.548;2023-04-29T18:33:10;101621.8;;;24.0;52.8
72124;BME280;63818;37.134;-8.548;2023-04-29T18:37:56;101630.5;;;23.7;53.6
72124;BME280;63818;37.134;-8.548;2023-04-29T18:42:42;101610.7;;;23.5;54.6
72124;BME280;63818;37.134;-8.548;2023-04-29T18:47:30;101608.5;;;23.4;54.9
72124;BME280;63818;37.134;-8.548;2023-04-29T18:52:18;101632.3;;;23.2;55.4
72124;BME280;63818;37.134;-8.548;2023-04-29T18:57:04;101636.9;;;23.2;55.5
72124;BME280;63818;37.134;-8.548;2023-04-29T19:01:53;101643.5;;;23.1;55.7
72124;BME280;63818;37.134;-8.548;2023-04-29T19:06:39;101644.9;;;23.0;56.2
72124;BME280;63818;37.134;-8.548;2023-04-29T19:11:24;101654.5;;;22.9;56.5
72124;BME280;63818;37.134;-8.548;2023-04-29T19:16:10;101669.5;;;22.8;56.7
72124;BME280;63818;37.134;-8.548;2023-04-29T19:20:56;101671.6;;;22.6;57.7
72124;BME280;63818;37.134;-8.548;2023-04-29T19:25:42;101703.8;;;22.5;57.9
72124;BME280;63818;37.134;-8.548;2023-04-29T19:30:28;101686.7;;;22.5;58.0
72124;BME280;63818;37.134;-8.548;2023-04-29T19:35:14;101685.2;;;22.6;57.8
72124;BME280;63818;37.134;-8.548;2023-04-29T19:40:03;101673.0;;;22.5;58.0
72124;BME280;63818;37.134;-8.548;2023-04-29T19:44:49;101676.3;;;22.4;58.3
72124;BME280;63818;37.134;-8.548;2023-04-29T19:49:37;101669.9;;;22.3;58.1
72124;BME280;63818;37.134;-8.548;2023-04-29T19:54:23;101675.5;;;22.2;58.8
72124;BME280;63818;37.134;-8.548;2023-04-29T19:59:09;101682.9;;;22.2;59.0
72124;BME280;63818;37.134;-8.548;2023-04-29T20:03:55;101719.6;;;22.1;58.6
72124;BME280;63818;37.134;-8.548;2023-04-29T20:08:41;101692.5;;;21.9;59.4
72124;BME280;63818;37.134;-8.548;2023-04-29T20:13:26;101706.0;;;22.0;59.2
72124;BME280;63818;37.134;-8.548;2023-04-29T20:18:12;101708.2;;;21.9;59.4
72124;BME280;63818;37.134;-8.548;2023-04-29T20:22:58;101711.0;;;21.7;59.9
72124;BME280;63818;37.134;-8.548;2023-04-29T20:27:44;101738.6;;;21.7;60.6
72124;BME280;63818;37.134;-8.548;2023-04-29T20:32:30;101760.2;;;21.5;61.2
72124;BME280;63818;37.134;-8.548;2023-04-29T20:37:16;101760.2;;;21.5;61.6
72124;BME280;63818;37.134;-8.548;2023-04-29T20:42:02;101774.2;;;21.5;62.1
72124;BME280;63818;37.134;-8.548;2023-04-29T20:46:48;101773.3;;;21.3;62.5
72124;BME280;63818;37.134;-8.548;2023-04-29T20:51:34;101777.9;;;21.3;63.2
72124;BME280;63818;37.134;-8.548;2023-04-29T20:56:23;101770.4;;;21.2;63.4
72124;BME280;63818;37.134;-8.548;2023-04-29T21:01:09;101761.7;;;21.2;64.0
72124;BME280;63818;37.134;-8.548;2023-04-29T21:05:56;101755.4;;;21.2;63.9
72124;BME280;63818;37.134;-8.548;2023-04-29T21:10:42;101778.6;;;21.1;63.9
72124;BME280;63818;37.134;-8.548;2023-04-29T21:15:28;101752.4;;;21.1;64.1
72124;BME280;63818;37.134;-8.548;2023-04-29T21:20:16;101756.3;;;21.2;64.1
72124;BME280;63818;37.134;-8.548;2023-04-29T21:25:03;101750.4;;;21.2;64.2
72124;BME280;63818;37.134;-8.548;2023-04-29T21:29:49;101758.4;;;21.1;64.0
72124;BME280;63818;37.134;-8.548;2023-04-29T21:34:35;101769.0;;;21.2;64.2
72124;BME280;63818;37.134;-8.548;2023-04-29T21:39:21;101739.8;;;21.0;64.5
72124;BME280;63818;37.134;-8.548;2023-04-29T21:44:07;101740.8;;;21.1;64.1
72124;BME280;63818;37.134;-8.548;2023-04-29T21:48:54;101747.5;;;21.1;64.4
72124;BME280;63818;37.134;-8.548;2023-04-29T21:53:41;101738.2;;;21.2;64.3
72124;BME280;63818;37.134;-8.548;2023-04-29T21:58:27;101739.2;;;21.1;63.9
72124;BME280;63818;37.134;-8.548;2023-04-29T22:03:13;101734.6;;;21.0;64.4
72124;BME280;63818;37.134;-8.548;2023-04-29T22:07:59;101731.6;;;21.0;64.6
72124;BME280;63818;37.134;-8.548;2023-04-29T22:12:45;101719.1;;;21.0;64.3
72124;BME280;63818;37.134;-8.548;2023-04-29T22:17:31;101714.5;;;21.2;63.5
72124;BME280;63818;37.134;-8.548;2023-04-29T22:22:17;101696.3;;;21.3;63.2
72124;BME280;63818;37.134;-8.548;2023-04-29T22:27:03;101689.7;;;21.3;62.8
72124;BME280;63818;37.134;-8.548;2023-04-29T22:31:49;101683.8;;;21.3;62.6
72124;BME280;63818;37.134;-8.548;2023-04-29T22:36:35;101684.7;;;21.4;62.2
72124;BME280;63818;37.134;-8.548;2023-04-29T22:41:22;101677.9;;;21.4;61.8
72124;BME280;63818;37.134;-8.548;2023-04-29T22:46:07;101671.9;;;21.5;61.3
72124;BME280;63818;37.134;-8.548;2023-04-29T22:50:56;101683.2;;;21.6;60.6
72124;BME280;63818;37.134;-8.548;2023-04-29T22:55:47;101656.4;;;21.6;60.7
72124;BME280;63818;37.134;-8.548;2023-04-29T23:00:33;101645.9;;;21.6;60.1
72124;BME280;63818;37.134;-8.548;2023-04-29T23:05:19;101648.6;;;21.6;59.9
72124;BME280;63818;37.134;-8.548;2023-04-29T23:10:05;101618.2;;;21.7;59.8
72124;BME280;63818;37.134;-8.548;2023-04-29T23:14:51;101627.5;;;21.6;59.7
72124;BME280;63818;37.134;-8.548;2023-04-29T23:19:37;101624.0;;;21.6;59.4
72124;BME280;63818;37.134;-8.548;2023-04-29T23:24:23;101621.5;;;21.5;59.7
72124;BME280;63818;37.134;-8.548;2023-04-29T23:29:09;101607.9;;;21.6;59.8
72124;BME280;63818;37.134;-8.548;2023-04-29T23:33:55;101629.4;;;21.4;59.6
72124;BME280;63818;37.134;-8.548;2023-04-29T23:38:41;101624.3;;;21.4;59.5
72124;BME280;63818;37.134;-8.548;2023-04-29T23:43:27;101629.7;;;21.4;59.6
72124;BME280;63818;37.134;-8.548;2023-04-29T23:48:13;101620.7;;;21.4;59.4
72124;BME280;63818;37.134;-8.548;2023-04-29T23:53:00;101617.9;;;21.3;59.5
72124;BME280;63818;37.134;-8.548;2023-04-29T23:57:46;101609.7;;;21.3;59.6
